Time;durP1;ratioP1;P1;durP2;ratioP2;P2;SDS_P1;SDS_P2;PMS_P1;PMS_P2;Temp;Humidity;BMP_temperature;BMP_pressure;BME280_temperature;BME280_humidity;BME280_pressure;Samples;Min_cycle;Max_cycle;Signal;HPM_P1;HPM_P2
2022/04/05 00:00:11;;;;;;;;;;;;;;;;;;4989521;28;19926;-63
2022/04/05 00:02:37;;;;;;;;;;;;;;;;;;4978399;28;19930;-63
2022/04/05 00:05:03;;;;;;;;;;;;;;;;;;4985823;28;19982;-65
2022/04/05 00:07:29;;;;;;;;;;;;;;;;;;4988757;28;19938;-64
2022/04/05 00:09:56;;;;;;;;;;;;;;;;;;4979791;28;20417;-65
2022/04/05 00:12:22;;;;;;;;;;;;;;;;;;4981123;28;19930;-66
2022/04/05 00:14:48;;;;;;;;;;;;;;;;;;4987775;28;19933;-66
2022/04/05 00:17:14;;;;;;;;;;;;;;;;;;4983295;28;19948;-65
2022/04/05 00:19:40;;;;;;;;;;;;;;;;;;4979621;28;19965;-64
2022/04/05 00:22:06;;;;;;;;;;;;;;;;;;4981567;28;19967;-62
2022/04/05 00:24:33;;;;;;;;;;;;;;;;;;4984335;28;20293;-64
2022/04/05 00:26:59;;;;;;;;;;;;;;;;;;4980568;28;20388;-63
2022/04/05 00:29:25;;;;;;;;;;;;;;;;;;4980348;28;20410;-64
2022/04/05 00:31:51;;;;;;;;;;;;;;;;;;4977326;28;20391;-66
2022/04/05 00:34:17;;;;;;;;;;;;;;;;;;4982253;28;20361;-67
2022/04/05 00:36:44;;;;;;;;;;;;;;;;;;4979887;28;19926;-63
2022/04/05 00:39:10;;;;;;;;;;;;;;;;;;4982401;28;19933;-64
2022/04/05 00:41:36;;;;;;;;;;;;;;;;;;4985581;28;19969;-64
2022/04/05 00:44:02;;;;;;;;;;;;;;;;;;4986672;28;19925;-64
2022/04/05 00:46:28;;;;;;;;;;;;;;;;;;4977517;28;19926;-63
2022/04/05 00:48:57;;;;;;;;;;;;;;;;;;4985948;28;19925;-62
2022/04/05 00:51:23;;;;;;;;;;;;;;;;;;4975986;28;19933;-64
2022/04/05 00:53:50;;;;;;;;;;;;;;;;;;4973854;28;19956;-64
2022/04/05 00:56:16;;;;;;;;;;;;;;;;;;4977484;28;20406;-65
2022/04/05 00:58:42;;;;;;;;;;;;;;;;;;4982059;28;19937;-65
2022/04/05 01:01:09;;;;;;;;;;;;;;;;;;4977115;28;19962;-65
2022/04/05 01:03:35;;;;;;;;;;;;;;;;;;4980486;28;20366;-65
2022/04/05 01:06:01;;;;;;;;;;;;;;;;;;4979657;28;19957;-63
2022/04/05 01:08:27;;;;;;;;;;;;;;;;;;4976498;28;19937;-66
2022/04/05 01:10:53;;;;;;;;;;;;;;;;;;4976415;28;20053;-64
2022/04/05 01:13:20;;;;;;;;;;;;;;;;;;4981318;28;20229;-67
2022/04/05 01:15:46;;;;;;;;;;;;;;;;;;4982970;28;20334;-67
2022/04/05 01:18:13;;;;;;;;;;;;;;;;;;4984333;28;19963;-67
2022/04/05 01:20:39;;;;;;;;;;;;;;;;;;4980213;28;19926;-67
2022/04/05 01:23:05;;;;;;;;;;;;;;;;;;4989559;28;19933;-67
2022/04/05 01:25:31;;;;;;;;;;;;;;;;;;4985296;28;19961;-65
2022/04/05 01:27:58;;;;;;;;;;;;;;;;;;4987761;28;19975;-66
2022/04/05 01:30:24;;;;;;;;;;;;;;;;;;4980286;28;20014;-65
2022/04/05 01:32:50;;;;;;;;;;;;;;;;;;4976586;28;19943;-64
2022/04/05 01:35:16;;;;;;;;;;;;;;;;;;4979148;28;19961;-64
2022/04/05 01:37:42;;;;;;;;;;;;;;;;;;4985623;28;19950;-65
2022/04/05 01:40:08;;;;;;;;;;;;;;;;;;4980273;28;19963;-65
2022/04/05 01:42:37;;;;;;;;;;;;;;;;;;4982237;28;19940;-62
2022/04/05 01:45:03;;;;;;;;;;;;;;;;;;4983728;28;19953;-61
2022/04/05 01:47:29;;;;;;;;;;;;;;;;;;4987476;28;19933;-63
2022/04/05 01:49:55;;;;;;;;;;;;;;;;;;4989945;28;19968;-63
2022/04/05 01:52:21;;;;;;;;;;;;;;;;;;4986148;28;19937;-61
2022/04/05 01:54:48;;;;;;;;;;;;;;;;;;4983727;28;19926;-62
2022/04/05 01:57:15;;;;;;;;;;;;;;;;;;4980824;28;19929;-63
2022/04/05 01:59:41;;;;;;;;;;;;;;;;;;4977611;28;19926;-62
2022/04/05 02:02:08;;;;;;;;;;;;;;;;;;4979988;28;19992;-62
2022/04/05 02:04:34;;;;;;;;;;;;;;;;;;4973358;28;19958;-64
2022/04/05 02:07:00;;;;;;;;;;;;;;;;;;4975081;28;19932;-63
2022/04/05 02:09:26;;;;;;;;;;;;;;;;;;4975575;28;19926;-61
2022/04/05 02:11:53;;;;;;;;;;;;;;;;;;4979752;28;19961;-63
2022/04/05 02:14:19;;;;;;;;;;;;;;;;;;4984763;28;19988;-61
2022/04/05 02:16:45;;;;;;;;;;;;;;;;;;4982150;28;19925;-62
2022/04/05 02:19:12;;;;;;;;;;;;;;;;;;4987149;28;19926;-63
2022/04/05 02:21:38;;;;;;;;;;;;;;;;;;4978658;28;19926;-68
2022/04/05 02:24:04;;;;;;;;;;;;;;;;;;4980362;28;19926;-65
2022/04/05 02:26:30;;;;;;;;;;;;;;;;;;4980661;28;19926;-66
2022/04/05 02:28:56;;;;;;;;;;;;;;;;;;4979001;28;19926;-68
2022/04/05 02:31:22;;;;;;;;;;;;;;;;;;4981707;28;19932;-66
2022/04/05 02:33:49;;;;;;;;;;;;;;;;;;4981853;28;19953;-66
2022/04/05 02:36:15;;;;;;;;;;;;;;;;;;4981276;28;20291;-69
2022/04/05 02:38:41;;;;;;;;;;;;;;;;;;4975095;28;19949;-68
2022/04/05 02:41:07;;;;;;;;;;;;;;;;;;4982094;28;20037;-67
2022/04/05 02:43:33;;;;;;;;;;;;;;;;;;4985251;28;19962;-67
2022/04/05 02:45:59;;;;;;;;;;;;;;;;;;4985522;28;19926;-66
2022/04/05 02:48:26;;;;;;;;;;;;;;;;;;4980970;28;20444;-67
2022/04/05 02:50:52;;;;;;;;;;;;;;;;;;4978575;28;19926;-65
2022/04/05 02:53:18;;;;;;;;;;;;;;;;;;4975266;28;19933;-66
2022/04/05 02:55:44;;;;;;;;;;;;;;;;;;4975509;28;19933;-66
2022/04/05 02:58:10;;;;;;;;;;;;;;;;;;4981212;28;20020;-66
2022/04/05 03:00:37;;;;;;;;;;;;;;;;;;4971754;28;19933;-65
2022/04/05 03:03:03;;;;;;;;;;;;;;;;;;4977133;28;19926;-69
2022/04/05 03:05:29;;;;;;;;;;;;;;;;;;4977769;28;19930;-67
2022/04/05 03:07:55;;;;;;;;;;;;;;;;;;4983347;28;19937;-67
2022/04/05 03:10:22;;;;;;;;;;;;;;;;;;4985812;28;19974;-69
2022/04/05 03:12:48;;;;;;;;;;;;;;;;;;4977456;28;19937;-68
2022/04/05 03:15:14;;;;;;;;;;;;;;;;;;4987658;28;19933;-69
2022/04/05 03:17:40;;;;;;;;;;;;;;;;;;4980175;28;19934;-67
2022/04/05 03:20:06;;;;;;;;;;;;;;;;;;4980018;28;19926;-67
2022/04/05 03:22:32;;;;;;;;;;;;;;;;;;4984423;28;20011;-64
2022/04/05 03:24:58;;;;;;;;;;;;;;;;;;4985861;28;20143;-64
2022/04/05 03:27:25;;;;;;;;;;;;;;;;;;4982280;28;19933;-65
2022/04/05 03:29:51;;;;;;;;;;;;;;;;;;4990027;28;19929;-65
2022/04/05 03:32:17;;;;;;;;;;;;;;;;;;4979482;28;20379;-66
2022/04/05 03:34:43;;;;;;;;;;;;;;;;;;4981282;28;19926;-64
2022/04/05 03:37:09;;;;;;;;;;;;;;;;;;4984313;28;19926;-67
2022/04/05 03:39:35;;;;;;;;;;;;;;;;;;4978300;28;19926;-66
2022/04/05 03:42:01;;;;;;;;;;;;;;;;;;4986064;28;19969;-67
2022/04/05 03:44:27;;;;;;;;;;;;;;;;;;4987653;28;20327;-64
2022/04/05 03:46:56;;;;;;;;;;;;;;;;;;4979700;28;19926;-67
2022/04/05 03:49:22;;;;;;;;;;;;;;;;;;4993042;28;19971;-65
2022/04/05 03:51:48;;;;;;;;;;;;;;;;;;4975714;28;20043;-65
2022/04/05 03:54:15;;;;;;;;;;;;;;;;;;4973640;28;20025;-65
2022/04/05 03:56:41;;;;;;;;;;;;;;;;;;4975481;28;19973;-64
2022/04/05 03:59:07;;;;;;;;;;;;;;;;;;4990154;28;19963;-64
2022/04/05 04:01:33;;;;;;;;;;;;;;;;;;4989637;28;19947;-64
2022/04/05 04:03:59;;;;;;;;;;;;;;;;;;4984153;28;19953;-63
2022/04/05 04:06:25;;;;;;;;;;;;;;;;;;4986358;28;19938;-64
2022/04/05 04:08:51;;;;;;;;;;;;;;;;;;4981604;28;19969;-62
2022/04/05 04:11:18;;;;;;;;;;;;;;;;;;4988164;28;19950;-65
2022/04/05 04:13:44;;;;;;;;;;;;;;;;;;4983860;28;19953;-65
2022/04/05 04:16:10;;;;;;;;;;;;;;;;;;4981569;28;19964;-66
2022/04/05 04:18:36;;;;;;;;;;;;;;;;;;4977585;28;19968;-66
2022/04/05 04:21:02;;;;;;;;;;;;;;;;;;4982315;28;19967;-68
2022/04/05 04:23:28;;;;;;;;;;;;;;;;;;4978391;28;19959;-66
2022/04/05 04:25:54;;;;;;;;;;;;;;;;;;4981696;28;20506;-68
2022/04/05 04:28:21;;;;;;;;;;;;;;;;;;4989415;28;19949;-69
2022/04/05 04:30:47;;;;;;;;;;;;;;;;;;4981375;28;19990;-69
2022/04/05 04:33:14;;;;;;;;;;;;;;;;;;4976369;28;19942;-69
2022/04/05 04:35:40;;;;;;;;;;;;;;;;;;4982166;28;19962;-69
2022/04/05 04:38:06;;;;;;;;;;;;;;;;;;4982208;28;19978;-68
2022/04/05 04:40:33;;;;;;;;;;;;;;;;;;4979922;28;20127;-68
2022/04/05 04:42:59;;;;;;;;;;;;;;;;;;4982800;28;19946;-67
2022/04/05 04:45:27;;;;;;;;;;;;;;;;;;4982045;28;19956;-68
2022/04/05 04:47:53;;;;;;;;;;;;;;;;;;4986016;28;19941;-69
2022/04/05 04:50:19;;;;;;;;;;;;;;;;;;4981699;28;19938;-66
2022/04/05 04:52:45;;;;;;;;;;;;;;;;;;4982549;28;19951;-66
2022/04/05 04:55:12;;;;;;;;;;;;;;;;;;4984490;28;19958;-66
2022/04/05 04:57:38;;;;;;;;;;;;;;;;;;4983098;28;19958;-68
2022/04/05 05:00:04;;;;;;;;;;;;;;;;;;4980361;28;19925;-66
2022/04/05 05:02:30;;;;;;;;;;;;;;;;;;4977700;28;19926;-68
2022/04/05 05:04:56;;;;;;;;;;;;;;;;;;5030168;23;19925;-75
2022/04/05 05:07:22;;;;;;;;;;;;;;;;;;5044124;28;20191;-74
2022/04/05 05:09:48;;;;;;;;;;;;;;;;;;5019274;28;20351;-73
2022/04/05 05:12:15;;;;;;;;;;;;;;;;;;5030682;28;20304;-73
2022/04/05 05:14:41;;;;;;;;;;;;;;;;;;5010070;28;20337;-73
2022/04/05 05:17:07;;;;;;;;;;;;;;;;;;5003516;28;19948;-72
2022/04/05 05:19:33;;;;;;;;;;;;;;;;;;4308505;28;10000733;-73
2022/04/05 05:21:59;;;;;;;;;;;;;;;;;;5008687;28;20296;-72
2022/04/05 05:24:25;;;;;;;;;;;;;;;;;;5002329;28;19937;-72
2022/04/05 05:26:51;;;;;;;;;;;;;;;;;;5003741;28;19944;-73
2022/04/05 05:29:17;;;;;;;;;;;;;;;;;;5006137;28;19941;-73
2022/04/05 05:31:44;;;;;;;;;;;;;;;;;;5002571;28;19932;-72
2022/04/05 05:34:10;;;;;;;;;;;;;;;;;;5005594;28;19925;-72
2022/04/05 05:36:36;;;;;;;;;;;;;;;;;;5007679;28;19925;-73
2022/04/05 05:39:02;;;;;;;;;;;;;;;;;;5007221;28;19943;-72
2022/04/05 05:41:28;;;;;;;;;;;;;;;;;;5019641;28;19947;-72
2022/04/05 05:43:54;;;;;;;;;;;;;;;;;;5021942;28;19966;-73
2022/04/05 05:46:21;;;;;;;;;;;;;;;;;;5023983;28;20021;-72
2022/04/05 05:48:47;;;;;;;;;;;;;;;;;;5014906;28;19936;-73
2022/04/05 05:51:14;;;;;;;;;;;;;;;;;;5011037;28;19936;-75
2022/04/05 05:53:40;;;;;;;;;;;;;;;;;;5005493;28;19929;-75
2022/04/05 05:56:06;;;;;;;;;;;;;;;;;;5009778;28;20577;-75
2022/04/05 05:58:32;;;;;;;;;;;;;;;;;;5009753;28;19925;-75
2022/04/05 06:00:58;;;;;;;;;;;;;;;;;;5009298;28;19937;-74
2022/04/05 06:03:24;;;;;;;;;;;;;;;;;;5008482;28;19976;-74
2022/04/05 06:05:50;;;;;;;;;;;;;;;;;;5008989;28;19983;-74
2022/04/05 06:08:17;;;;;;;;;;;;;;;;;;5009488;28;20037;-74
2022/04/05 06:10:43;;;;;;;;;;;;;;;;;;5006586;28;20467;-74
2022/04/05 06:13:09;;;;;;;;;;;;;;;;;;5008587;28;19941;-74
2022/04/05 06:15:35;;;;;;;;;;;;;;;;;;5001065;28;20259;-74
2022/04/05 06:18:01;;;;;;;;;;;;;;;;;;5004513;28;19930;-75
2022/04/05 06:20:28;;;;;;;;;;;;;;;;;;4999737;28;19935;-74
2022/04/05 06:22:54;;;;;;;;;;;;;;;;;;5008452;28;19929;-74
2022/04/05 06:25:20;;;;;;;;;;;;;;;;;;5007137;28;19936;-74
2022/04/05 06:27:46;;;;;;;;;;;;;;;;;;5008395;28;20415;-75
2022/04/05 06:30:12;;;;;;;;;;;;;;;;;;5006269;28;19983;-74
2022/04/05 06:32:38;;;;;;;;;;;;;;;;;;5008361;28;19945;-74
2022/04/05 06:35:04;;;;;;;;;;;;;;;;;;5008708;28;19970;-74
2022/04/05 06:37:30;;;;;;;;;;;;;;;;;;5009550;28;19929;-74
2022/04/05 06:39:57;;;;;;;;;;;;;;;;;;5008394;28;19937;-76
2022/04/05 06:42:25;;;;;;;;;;;;;;;;;;5008381;28;19966;-75
2022/04/05 06:44:51;;;;;;;;;;;;;;;;;;5008562;28;19936;-74
2022/04/05 06:47:17;;;;;;;;;;;;;;;;;;5007627;28;19933;-75
2022/04/05 06:49:43;;;;;;;;;;;;;;;;;;5001301;28;20320;-74
2022/04/05 06:52:09;;;;;;;;;;;;;;;;;;5005378;28;20385;-76
2022/04/05 06:54:35;;;;;;;;;;;;;;;;;;5007417;28;19930;-76
2022/04/05 06:57:02;;;;;;;;;;;;;;;;;;5006665;28;20104;-76
2022/04/05 06:59:28;;;;;;;;;;;;;;;;;;5008287;28;19937;-75
2022/04/05 07:01:54;;;;;;;;;;;;;;;;;;5008195;28;19926;-75
2022/04/05 07:04:20;;;;;;;;;;;;;;;;;;4663717;28;9999997;-76
2022/04/05 07:06:46;;;;;;;;;;;;;;;;;;5012394;28;19982;-76
2022/04/05 07:09:12;;;;;;;;;;;;;;;;;;5013026;28;19929;-75
2022/04/05 07:11:38;;;;;;;;;;;;;;;;;;5010762;28;19929;-76
2022/04/05 07:14:04;;;;;;;;;;;;;;;;;;5012686;28;19937;-76
2022/04/05 07:16:31;;;;;;;;;;;;;;;;;;5011814;28;19932;-76
2022/04/05 07:18:57;;;;;;;;;;;;;;;;;;5012210;28;19929;-75
2022/04/05 07:21:23;;;;;;;;;;;;;;;;;;5010486;28;19952;-75
2022/04/05 07:23:49;;;;;;;;;;;;;;;;;;5023296;28;19933;-76
2022/04/05 07:26:16;;;;;;;;;;;;;;;;;;5028017;28;19936;-76
2022/04/05 07:28:42;;;;;;;;;;;;;;;;;;5028325;28;19929;-76
2022/04/05 07:31:08;;;;;;;;;;;;;;;;;;5025138;28;19929;-75
2022/04/05 07:33:34;;;;;;;;;;;;;;;;;;5015271;28;19936;-75
2022/04/05 07:36:00;;;;;;;;;;;;;;;;;;5012209;28;19930;-75
2022/04/05 07:38:26;;;;;;;;;;;;;;;;;;5012413;28;19929;-74
2022/04/05 07:40:53;;;;;;;;;;;;;;;;;;5009512;28;20323;-75
2022/04/05 07:43:19;;;;;;;;;;;;;;;;;;5011073;28;20015;-75
2022/04/05 07:45:48;;;;;;;;;;;;;;;;;;5011440;28;20085;-75
2022/04/05 07:48:14;;;;;;;;;;;;;;;;;;4999036;28;20377;-75
2022/04/05 07:50:40;;;;;;;;;;;;;;;;;;5011006;28;20308;-76
2022/04/05 07:53:06;;;;;;;;;;;;;;;;;;5010349;28;20427;-75
2022/04/05 07:55:32;;;;;;;;;;;;;;;;;;5011647;28;19937;-76
2022/04/05 07:57:59;;;;;;;;;;;;;;;;;;5011873;28;19926;-76
2022/04/05 08:00:26;;;;;;;;;;;;;;;;;;5011317;28;19929;-75
2022/04/05 08:02:52;;;;;;;;;;;;;;;;;;5010471;28;19930;-75
2022/04/05 08:05:19;;;;;;;;;;;;;;;;;;5011367;28;19929;-77
2022/04/05 08:07:46;;;;;;;;;;;;;;;;;;5012012;28;19932;-75
2022/04/05 08:10:13;;;;;;;;;;;;;;;;;;5011679;28;20018;-75
2022/04/05 08:12:39;;;;;;;;;;;;;;;;;;5009681;28;19956;-75
2022/04/05 08:15:05;;;;;;;;;;;;;;;;;;5010657;28;19925;-75
2022/04/05 08:17:31;;;;;;;;;;;;;;;;;;5010497;28;19929;-75
2022/04/05 08:19:57;;;;;;;;;;;;;;;;;;5011134;28;19925;-75
2022/04/05 08:22:23;;;;;;;;;;;;;;;;;;5007799;28;19926;-75
2022/04/05 08:24:49;;;;;;;;;;;;;;;;;;5010997;28;19929;-74
2022/04/05 08:27:16;;;;;;;;;;;;;;;;;;5009268;28;19925;-74
2022/04/05 08:29:42;;;;;;;;;;;;;;;;;;5009495;28;20376;-75
2022/04/05 08:32:08;;;;;;;;;;;;;;;;;;5009028;28;20308;-75
2022/04/05 08:34:35;;;;;;;;;;;;;;;;;;5010543;28;19932;-75
2022/04/05 08:37:01;;;;;;;;;;;;;;;;;;5010305;28;20013;-74
2022/04/05 08:39:28;;;;;;;;;;;;;;;;;;5010808;28;19929;-75
2022/04/05 08:41:54;;;;;;;;;;;;;;;;;;5008105;28;19936;-77
2022/04/05 08:44:20;;;;;;;;;;;;;;;;;;5010040;28;19980;-76
2022/04/05 08:46:47;;;;;;;;;;;;;;;;;;5010384;28;19932;-77
2022/04/05 08:49:13;;;;;;;;;;;;;;;;;;5010337;28;19926;-76
2022/04/05 08:51:39;;;;;;;;;;;;;;;;;;4997249;28;20356;-76
2022/04/05 08:54:05;;;;;;;;;;;;;;;;;;5008909;28;19925;-76
2022/04/05 08:56:32;;;;;;;;;;;;;;;;;;5013894;28;19948;-75
2022/04/05 08:58:59;;;;;;;;;;;;;;;;;;5012612;28;19933;-75
2022/04/05 09:01:29;;;;;;;;;;;;;;;;;;5013045;28;19925;-74
2022/04/05 09:03:55;;;;;;;;;;;;;;;;;;5010264;28;19936;-75
2022/04/05 09:06:21;;;;;;;;;;;;;;;;;;5013437;28;20422;-74
2022/04/05 09:08:47;;;;;;;;;;;;;;;;;;5013413;28;20005;-75
2022/04/05 09:11:14;;;;;;;;;;;;;;;;;;5012693;28;19937;-74
2022/04/05 09:13:40;;;;;;;;;;;;;;;;;;5007510;28;19929;-74
2022/04/05 09:16:08;;;;;;;;;;;;;;;;;;5009732;28;19934;-75
2022/04/05 09:18:34;;;;;;;;;;;;;;;;;;5010418;28;20387;-75
2022/04/05 09:21:00;;;;;;;;;;;;;;;;;;5009767;28;20408;-75
2022/04/05 09:23:26;;;;;;;;;;;;;;;;;;5008429;28;20285;-75
2022/04/05 09:25:52;;;;;;;;;;;;;;;;;;5009227;28;19936;-75
2022/04/05 09:28:18;;;;;;;;;;;;;;;;;;5007852;28;19935;-74
2022/04/05 09:30:44;;;;;;;;;;;;;;;;;;5008864;28;20397;-75
2022/04/05 09:33:11;;;;;;;;;;;;;;;;;;5008034;28;20595;-75
2022/04/05 09:35:37;;;;;;;;;;;;;;;;;;5009649;28;19940;-75
2022/04/05 09:38:03;;;;;;;;;;;;;;;;;;5009916;28;19936;-75
2022/04/05 09:40:32;;;;;;;;;;;;;;;;;;5009290;28;19937;-75
2022/04/05 09:42:58;;;;;;;;;;;;;;;;;;5007812;28;19973;-76
2022/04/05 09:45:24;;;;;;;;;;;;;;;;;;5008302;28;20293;-75
2022/04/05 09:47:50;;;;;;;;;;;;;;;;;;5000229;28;20028;-75
2022/04/05 09:50:17;;;;;;;;;;;;;;;;;;5006423;28;19929;-75
2022/04/05 09:52:43;;;;;;;;;;;;;;;;;;5008770;28;19936;-75
2022/04/05 09:55:09;;;;;;;;;;;;;;;;;;5006986;28;20262;-76
2022/04/05 09:57:36;;;;;;;;;;;;;;;;;;5008367;28;19925;-75
2022/04/05 10:00:03;;;;;;;;;;;;;;;;;;5010444;28;19929;-77
2022/04/05 10:02:30;;;;;;;;;;;;;;;;;;5009224;28;19979;-74
2022/04/05 10:04:56;;;;;;;;;;;;;;;;;;5006604;28;19930;-75
2022/04/05 10:07:23;;;;;;;;;;;;;;;;;;5009827;28;19926;-75
2022/04/05 10:09:49;;;;;;;;;;;;;;;;;;5016927;28;19979;-75
2022/04/05 10:12:15;;;;;;;;;;;;;;;;;;5024582;28;19929;-75
2022/04/05 10:14:42;;;;;;;;;;;;;;;;;;5025127;28;20334;-76
2022/04/05 10:17:08;;;;;;;;;;;;;;;;;;5023256;28;19925;-76
2022/04/05 10:19:35;;;;;;;;;;;;;;;;;;5022703;28;19929;-76
2022/04/05 10:22:01;;;;;;;;;;;;;;;;;;5023567;28;19929;-76
2022/04/05 10:24:28;;;;;;;;;;;;;;;;;;5020736;28;20033;-75
2022/04/05 10:26:54;;;;;;;;;;;;;;;;;;5009208;28;20348;-75
2022/04/05 10:29:20;;;;;;;;;;;;;;;;;;5006828;28;20471;-74
2022/04/05 10:31:46;;;;;;;;;;;;;;;;;;5008760;28;19936;-75
2022/04/05 10:34:14;;;;;;;;;;;;;;;;;;5009097;28;19980;-75
2022/04/05 10:36:40;;;;;;;;;;;;;;;;;;5009242;28;19930;-76
2022/04/05 10:39:06;;;;;;;;;;;;;;;;;;5006602;28;19936;-76
2022/04/05 10:41:33;;;;;;;;;;;;;;;;;;5008820;28;19934;-75
2022/04/05 10:43:59;;;;;;;;;;;;;;;;;;5008313;28;20289;-75
2022/04/05 10:46:25;;;;;;;;;;;;;;;;;;5008724;28;20418;-76
2022/04/05 10:48:51;;;;;;;;;;;;;;;;;;5007801;28;20316;-73
2022/04/05 10:51:30;;;;;;;;;;;;;;;;;;5007513;28;20289;-75
2022/04/05 10:56:36;;;;;;;;;;;;;;;;;;5007118;28;20372;-77
2022/04/05 10:59:03;;;;;;;;;;;;;;;;;;5008692;28;20332;-75
2022/04/05 11:01:29;;;;;;;;;;;;;;;;;;5007043;28;19926;-75
2022/04/05 11:03:55;;;;;;;;;;;;;;;;;;5006826;28;19932;-76
2022/04/05 11:06:21;;;;;;;;;;;;;;;;;;5008631;28;20019;-73
2022/04/05 11:08:47;;;;;;;;;;;;;;;;;;5008047;28;19934;-76
2022/04/05 11:11:13;;;;;;;;;;;;;;;;;;5008666;28;19925;-75
2022/04/05 11:13:39;;;;;;;;;;;;;;;;;;5007733;28;19930;-77
2022/04/05 11:16:06;;;;;;;;;;;;;;;;;;5007742;28;19926;-75
2022/04/05 11:18:33;;;;;;;;;;;;;;;;;;5009073;28;19929;-74
2022/04/05 11:20:59;;;;;;;;;;;;;;;;;;5008952;28;19933;-75
2022/04/05 11:23:25;;;;;;;;;;;;;;;;;;5010223;28;19934;-76
2022/04/05 11:25:51;;;;;;;;;;;;;;;;;;5007370;28;19977;-75
2022/04/05 11:28:18;;;;;;;;;;;;;;;;;;5009185;28;19936;-76
2022/04/05 11:30:44;;;;;;;;;;;;;;;;;;5008161;28;20016;-78
2022/04/05 11:33:12;;;;;;;;;;;;;;;;;;5008497;28;19936;-74
2022/04/05 11:35:38;;;;;;;;;;;;;;;;;;5023016;28;20419;-76
2022/04/05 11:38:04;;;;;;;;;;;;;;;;;;5027501;28;19929;-76
2022/04/05 11:40:30;;;;;;;;;;;;;;;;;;5026939;28;19972;-76
2022/04/05 11:42:56;;;;;;;;;;;;;;;;;;5025667;28;19936;-76
2022/04/05 11:45:23;;;;;;;;;;;;;;;;;;5023144;28;19980;-77
2022/04/05 11:47:49;;;;;;;;;;;;;;;;;;5023246;28;19929;-76
2022/04/05 11:50:15;;;;;;;;;;;;;;;;;;5026877;28;19929;-75
2022/04/05 11:52:41;;;;;;;;;;;;;;;;;;5029469;28;19935;-75
2022/04/05 11:57:51;;;;;;;;;;;;;;;;;;5028091;28;20068;-75
2022/04/05 12:00:17;;;;;;;;;;;;;;;;;;5027219;28;20233;-75
2022/04/05 12:02:43;;;;;;;;;;;;;;;;;;5025983;28;19932;-76
2022/04/05 12:05:09;;;;;;;;;;;;;;;;;;5025857;28;19929;-75
2022/04/05 12:07:36;;;;;;;;;;;;;;;;;;5019932;28;19925;-75
2022/04/05 12:10:02;;;;;;;;;;;;;;;;;;5025503;28;19929;-76
2022/04/05 12:12:29;;;;;;;;;;;;;;;;;;5025664;28;20336;-76
2022/04/05 12:14:55;;;;;;;;;;;;;;;;;;5021928;28;19933;-76
2022/04/05 12:17:21;;;;;;;;;;;;;;;;;;5025829;28;19929;-75
2022/04/05 12:19:47;;;;;;;;;;;;;;;;;;5025155;28;19976;-75
2022/04/05 12:22:14;;;;;;;;;;;;;;;;;;5019475;28;19929;-74
2022/04/05 12:24:40;;;;;;;;;;;;;;;;;;5012147;28;20035;-74
2022/04/05 12:27:06;;;;;;;;;;;;;;;;;;5010093;28;19937;-75
2022/04/05 12:29:32;;;;;;;;;;;;;;;;;;5012087;28;19933;-76
2022/04/05 12:31:58;;;;;;;;;;;;;;;;;;5010506;28;20017;-75
2022/04/05 12:34:25;;;;;;;;;;;;;;;;;;5011450;28;19935;-76
2022/04/05 12:36:51;;;;;;;;;;;;;;;;;;5010064;28;19933;-77
2022/04/05 12:39:17;;;;;;;;;;;;;;;;;;5002448;28;19937;-74
2022/04/05 12:41:43;;;;;;;;;;;;;;;;;;5010293;28;19960;-76
2022/04/05 12:44:09;;;;;;;;;;;;;;;;;;5010881;28;19977;-76
2022/04/05 12:46:36;;;;;;;;;;;;;;;;;;5007174;28;19930;-74
2022/04/05 12:49:02;;;;;;;;;;;;;;;;;;5008339;28;20217;-73
2022/04/05 12:51:28;;;;;;;;;;;;;;;;;;5010167;28;19936;-72
2022/04/05 12:53:54;;;;;;;;;;;;;;;;;;5012693;28;19929;-72
2022/04/05 12:56:20;;;;;;;;;;;;;;;;;;5010669;28;19925;-72
2022/04/05 12:58:48;;;;;;;;;;;;;;;;;;5042370;23;19921;-75
2022/04/05 13:01:17;;;;;;;;;;;;;;;;;;5026896;28;19929;-76
2022/04/05 13:03:43;;;;;;;;;;;;;;;;;;5031418;28;19929;-77
2022/04/05 13:06:22;;;;;;;;;;;;;;;;;;5032250;28;19929;-76
2022/04/05 13:08:48;;;;;;;;;;;;;;;;;;5027261;28;19925;-77
2022/04/05 13:11:14;;;;;;;;;;;;;;;;;;5031643;28;19925;-75
2022/04/05 13:13:40;;;;;;;;;;;;;;;;;;5032501;28;19932;-74
2022/04/05 13:16:06;;;;;;;;;;;;;;;;;;5034889;28;19933;-74
2022/04/05 13:18:32;;;;;;;;;;;;;;;;;;5038831;28;19929;-76
2022/04/05 13:20:59;;;;;;;;;;;;;;;;;;5038666;28;20099;-77
2022/04/05 13:23:26;;;;;;;;;;;;;;;;;;5037840;28;19925;-76
2022/04/05 13:25:52;;;;;;;;;;;;;;;;;;5035998;28;20368;-76
2022/04/05 13:28:19;;;;;;;;;;;;;;;;;;5030863;28;20289;-76
2022/04/05 13:30:45;;;;;;;;;;;;;;;;;;5031323;28;20220;-75
2022/04/05 13:33:11;;;;;;;;;;;;;;;;;;5031404;28;20327;-75
2022/04/05 13:35:37;;;;;;;;;;;;;;;;;;5032692;28;19925;-75
2022/04/05 13:38:03;;;;;;;;;;;;;;;;;;5030951;28;19954;-76
2022/04/05 13:40:29;;;;;;;;;;;;;;;;;;5031557;28;20412;-78
2022/04/05 13:42:55;;;;;;;;;;;;;;;;;;5032507;28;20184;-76
2022/04/05 13:45:22;;;;;;;;;;;;;;;;;;5032068;28;19932;-76
2022/04/05 13:47:48;;;;;;;;;;;;;;;;;;5025670;28;19925;-76
2022/04/05 13:50:14;;;;;;;;;;;;;;;;;;5030993;28;19932;-76
2022/04/05 13:52:40;;;;;;;;;;;;;;;;;;5031103;28;20024;-76
2022/04/05 13:55:06;;;;;;;;;;;;;;;;;;5031590;28;20352;-76
2022/04/05 13:57:32;;;;;;;;;;;;;;;;;;5029908;28;20317;-76
2022/04/05 13:59:58;;;;;;;;;;;;;;;;;;5031458;28;20300;-76
2022/04/05 14:02:25;;;;;;;;;;;;;;;;;;5029488;28;19929;-76
2022/04/05 14:04:51;;;;;;;;;;;;;;;;;;5028706;28;20442;-77
2022/04/05 14:07:17;;;;;;;;;;;;;;;;;;5020535;28;20317;-75
2022/04/05 14:09:44;;;;;;;;;;;;;;;;;;5023624;28;20372;-76
2022/04/05 14:12:10;;;;;;;;;;;;;;;;;;5032111;28;19932;-76
2022/04/05 14:14:36;;;;;;;;;;;;;;;;;;5030027;28;19925;-76
2022/04/05 14:17:02;;;;;;;;;;;;;;;;;;5028756;28;19929;-76
2022/04/05 14:19:28;;;;;;;;;;;;;;;;;;5031304;28;19928;-76
2022/04/05 14:21:54;;;;;;;;;;;;;;;;;;5032889;28;19925;-77
2022/04/05 14:24:20;;;;;;;;;;;;;;;;;;5033593;28;20036;-77
2022/04/05 14:26:47;;;;;;;;;;;;;;;;;;5032420;28;19951;-77
2022/04/05 14:29:15;;;;;;;;;;;;;;;;;;5031203;28;19929;-76
2022/04/05 14:31:41;;;;;;;;;;;;;;;;;;5041527;28;19971;-76
2022/04/05 14:34:07;;;;;;;;;;;;;;;;;;5042176;28;19925;-76
2022/04/05 14:36:33;;;;;;;;;;;;;;;;;;5042214;28;19929;-76
2022/04/05 14:39:01;;;;;;;;;;;;;;;;;;5039438;28;19926;-76
2022/04/05 14:41:27;;;;;;;;;;;;;;;;;;5033271;28;19925;-75
2022/04/05 14:43:59;;;;;;;;;;;;;;;;;;5040910;28;19929;-77
2022/04/05 14:46:25;;;;;;;;;;;;;;;;;;5036397;28;20209;-77
2022/04/05 14:48:51;;;;;;;;;;;;;;;;;;5028363;28;19932;-77
2022/04/05 14:51:17;;;;;;;;;;;;;;;;;;5030750;28;19932;-77
2022/04/05 14:53:43;;;;;;;;;;;;;;;;;;5031991;28;19936;-78
2022/04/05 14:56:09;;;;;;;;;;;;;;;;;;5025855;28;19945;-76
2022/04/05 14:58:35;;;;;;;;;;;;;;;;;;5029772;28;19932;-77
2022/04/05 15:01:01;;;;;;;;;;;;;;;;;;5030764;28;19929;-76
2022/04/05 15:03:28;;;;;;;;;;;;;;;;;;5029147;28;19925;-77
2022/04/05 15:05:54;;;;;;;;;;;;;;;;;;5031808;28;19925;-77
2022/04/05 15:08:21;;;;;;;;;;;;;;;;;;5030384;28;19926;-77
2022/04/05 15:10:47;;;;;;;;;;;;;;;;;;5030831;28;20031;-76
2022/04/05 15:13:13;;;;;;;;;;;;;;;;;;5031584;28;19925;-77
2022/04/05 15:15:39;;;;;;;;;;;;;;;;;;5026273;28;19951;-75
2022/04/05 15:18:06;;;;;;;;;;;;;;;;;;5029915;28;19925;-77
2022/04/05 15:20:34;;;;;;;;;;;;;;;;;;5031829;28;20390;-76
2022/04/05 15:23:00;;;;;;;;;;;;;;;;;;5035869;28;19929;-77
2022/04/05 15:25:26;;;;;;;;;;;;;;;;;;5028244;28;19929;-76
2022/04/05 15:27:52;;;;;;;;;;;;;;;;;;5033290;28;19925;-77
2022/04/05 15:30:18;;;;;;;;;;;;;;;;;;5035602;28;19925;-77
2022/04/05 15:32:45;;;;;;;;;;;;;;;;;;5034867;28;19945;-77
2022/04/05 15:35:11;;;;;;;;;;;;;;;;;;5034630;28;20422;-77
2022/04/05 15:37:37;;;;;;;;;;;;;;;;;;5033712;28;19925;-76
2022/04/05 15:40:04;;;;;;;;;;;;;;;;;;5035054;28;20083;-77
2022/04/05 15:42:31;;;;;;;;;;;;;;;;;;5033658;28;19925;-78
2022/04/05 15:44:57;;;;;;;;;;;;;;;;;;5034422;28;19979;-76
2022/04/05 15:47:23;;;;;;;;;;;;;;;;;;5032224;28;19932;-76
2022/04/05 15:49:49;;;;;;;;;;;;;;;;;;5034453;28;19932;-76
2022/04/05 15:52:15;;;;;;;;;;;;;;;;;;5033746;28;19941;-76
2022/04/05 15:54:41;;;;;;;;;;;;;;;;;;5049543;28;19925;-75
2022/04/05 15:57:07;;;;;;;;;;;;;;;;;;5028124;28;19925;-75
2022/04/05 15:59:34;;;;;;;;;;;;;;;;;;5034412;28;20132;-76
2022/04/05 16:02:00;;;;;;;;;;;;;;;;;;5031654;28;19932;-77
2022/04/05 16:04:26;;;;;;;;;;;;;;;;;;5028410;28;19925;-76
2022/04/05 16:06:52;;;;;;;;;;;;;;;;;;5034129;28;19933;-76
2022/04/05 16:09:18;;;;;;;;;;;;;;;;;;5036693;28;19933;-77
2022/04/05 16:11:44;;;;;;;;;;;;;;;;;;5038966;28;19940;-76
2022/04/05 16:14:10;;;;;;;;;;;;;;;;;;5037462;28;19944;-76
2022/04/05 16:16:37;;;;;;;;;;;;;;;;;;5037692;28;19925;-76
2022/04/05 16:19:03;;;;;;;;;;;;;;;;;;5036150;28;19925;-76
2022/04/05 16:21:29;;;;;;;;;;;;;;;;;;5038612;28;19925;-75
2022/04/05 16:23:55;;;;;;;;;;;;;;;;;;5040697;28;19929;-75
2022/04/05 16:26:21;;;;;;;;;;;;;;;;;;5036640;28;19940;-76
2022/04/05 16:28:47;;;;;;;;;;;;;;;;;;5036105;28;19925;-76
2022/04/05 16:31:13;;;;;;;;;;;;;;;;;;5039040;28;19925;-77
2022/04/05 16:33:39;;;;;;;;;;;;;;;;;;5031939;28;19975;-75
2022/04/05 16:36:06;;;;;;;;;;;;;;;;;;5038153;28;19925;-77
2022/04/05 16:38:33;;;;;;;;;;;;;;;;;;5036148;28;19932;-76
2022/04/05 16:41:00;;;;;;;;;;;;;;;;;;5039456;28;20140;-77
2022/04/05 16:43:26;;;;;;;;;;;;;;;;;;5034659;28;19925;-76